Ayers Rock, Northern Territory

3:39 PM CST on September 03, 2014 (GMT +0930)
Ayers Rock (Connellan) | Change Station
CLOSE
Current Station
Airport
Location: Ayers Rock,
Elevation: 1627 ft
Nearby Weather Stations

Elev 1627 ft 25.19 °S, 130.98 °E | Updated 9 minutes ago

Clear
Clear
82 °F
Feels Like 82 °F
N
7
Wind Variable Wind from NW

Today
High -- | Low -- °F
--% Chance of Precip.
Yesterday
High -- | Low -- °F
Precip. -- in
6:56 AM 6:35 PM
First Quarter, 59% visible
Pressure 30.04 in
Visibility 6.2 miles
Clouds
Dew Point 34 °F
Humidity 17%
Rainfall 0.00 in
Snow Depth Not available.
UV Not available.
Pollen Not available.
Air Quality Not available.
Flu Activity Not available.
METAR YAYE 030600Z AUTO 32006KT 270V350 9999 // NCD 28/01 Q1017

More Conditions Fewer Conditions

Pressure 30.04 in
Visibility 6.2 miles
Clouds
Dew Point 34 °F
Humidity 17%
Rainfall 0.00 in
Snow Depth Not available.
UV Not available.
Pollen Not available.
Air Quality Not available.
Flu Activity Not available.
METAR YAYE 030600Z AUTO 32006KT 270V350 9999 // NCD 28/01 Q1017

More Conditions Fewer Conditions

10-Day Weather Forecast

Almanac

Astronomy

Sep. 03, 2014 Rise Set
Actual Time 6:56 AM CST 6:35 PM CST
Civil Twilight 6:33 AM CST 6:58 PM CST
Nautical Twilight 6:06 AM CST 7:24 PM CST
Astronomical Twilight 5:40 AM CST 7:51 PM CST
Moon 12:35 PM CST 1:21 AM CST
Length of Visible Light 12h 24m
Length of Day
11h 38m
Tomorrow will be 1m 24s longer.
First Quarter, 59% of the Moon is Illuminated
Today
First Quarter
Sep 8
Full
Sep 15
Last Quarter
Sep 24
New
Oct 1
First Quarter

Yesterday's Extremes

Country Highs Country Lows

Community

WunderPhotos

Upload Photos

1,749,888 photos uploaded!

Nearby

Snow Depth

Not available.

Earthquake Activity

City Distance Mag. Time & Date
No recent earthquake activity has been reported nearby.
Minimum magnitude displayed is 2.5.

Coastal Water Temperatures

Place Temperature
No Stations Reporting

Nearby Weather Stations